createdAt,value
2022-08-09T00:01:16.587Z,101205.78
2022-08-09T00:04:08.481Z,101204.59
2022-08-09T00:06:37.805Z,101207.50
2022-08-09T00:09:07.900Z,101206.33
2022-08-09T00:11:58.611Z,101210.96
2022-08-09T00:14:37.793Z,101210.27
2022-08-09T00:17:09.568Z,101212.00
2022-08-09T00:20:00.227Z,101216.52
2022-08-09T00:22:35.017Z,101214.06
2022-08-09T00:25:12.704Z,101213.04
2022-08-09T00:27:47.922Z,101215.21
2022-08-09T00:30:26.189Z,101212.71
2022-08-09T00:32:56.688Z,101213.90
2022-08-09T00:35:43.269Z,101215.45
2022-08-09T00:38:15.278Z,101217.38
2022-08-09T00:40:52.476Z,101219.20
2022-08-09T00:44:10.202Z,101222.31
2022-08-09T00:47:33.207Z,101224.44
2022-08-09T00:50:14.310Z,101225.84
2022-08-09T00:52:47.884Z,101224.19
2022-08-09T00:56:03.000Z,101224.52
2022-08-09T00:58:36.066Z,101226.48
2022-08-09T01:01:32.306Z,101227.40
2022-08-09T01:04:09.299Z,101222.98
2022-08-09T01:07:19.496Z,101226.75
2022-08-09T01:10:51.908Z,101224.89
2022-08-09T01:13:59.258Z,101223.81
2022-08-09T01:16:47.260Z,101221.48
2022-08-09T01:19:51.765Z,101218.70
2022-08-09T01:22:45.402Z,101218.40
2022-08-09T01:25:37.372Z,101218.69
2022-08-09T01:28:14.150Z,101217.36
2022-08-09T01:30:51.921Z,101221.17
2022-08-09T01:33:27.985Z,101219.86
2022-08-09T01:36:15.666Z,101217.60
2022-08-09T01:38:49.104Z,101211.39
2022-08-09T01:41:31.730Z,101207.86
2022-08-09T01:44:06.488Z,101205.27
2022-08-09T01:47:31.403Z,101205.59
2022-08-09T01:50:06.749Z,101210.73
2022-08-09T01:52:41.451Z,101219.17
2022-08-09T01:55:14.655Z,101224.02
2022-08-09T01:57:52.868Z,101219.58
2022-08-09T02:00:35.533Z,101222.54
2022-08-09T02:03:11.344Z,101228.77
2022-08-09T02:06:04.237Z,101227.14
2022-08-09T02:08:58.035Z,101228.28
2022-08-09T02:11:42.479Z,101229.66
2022-08-09T02:14:26.567Z,101225.64
2022-08-09T02:17:59.261Z,101218.66
2022-08-09T02:20:09.345Z,101215.77
2022-08-09T02:22:46.653Z,101219.61
2022-08-09T02:25:22.487Z,101220.02
2022-08-09T02:28:33.121Z,101218.64
2022-08-09T02:31:06.683Z,101216.45
2022-08-09T02:34:07.492Z,101218.17
2022-08-09T02:36:37.768Z,101216.52
2022-08-09T02:39:20.070Z,101214.20
2022-08-09T02:42:19.028Z,101217.48
2022-08-09T02:45:09.568Z,101213.25
2022-08-09T02:47:57.351Z,101219.46
2022-08-09T02:50:37.713Z,101216.80
2022-08-09T02:53:26.197Z,101220.21
2022-08-09T02:56:01.955Z,101221.48
2022-08-09T02:58:37.219Z,101220.82
2022-08-09T03:01:15.153Z,101216.48
2022-08-09T03:04:17.873Z,101223.27
2022-08-09T03:06:46.765Z,101224.39
2022-08-09T03:09:20.972Z,101229.80
2022-08-09T03:12:08.413Z,101231.45
2022-08-09T03:14:45.785Z,101234.38
2022-08-09T03:17:26.735Z,101230.66
2022-08-09T03:20:05.204Z,101231.06
2022-08-09T03:22:56.931Z,101235.82
2022-08-09T03:25:58.093Z,101236.70
2022-08-09T03:28:25.152Z,101236.75
2022-08-09T03:30:57.070Z,101232.70
2022-08-09T03:33:54.696Z,101231.91
2022-08-09T03:36:21.009Z,101233.20
2022-08-09T03:39:01.054Z,101235.45
2022-08-09T03:41:45.854Z,101231.77
2022-08-09T03:44:19.848Z,101231.80
2022-08-09T03:46:58.968Z,101233.45
2022-08-09T03:49:36.944Z,101233.30
2022-08-09T03:52:13.108Z,101230.86
2022-08-09T03:54:45.909Z,101233.70
2022-08-09T03:57:23.197Z,101232.95
2022-08-09T04:00:01.256Z,101229.84
2022-08-09T04:02:45.673Z,101230.38
2022-08-09T04:05:27.336Z,101230.91
2022-08-09T04:07:58.953Z,101231.27
2022-08-09T04:10:30.569Z,101235.05
2022-08-09T04:13:04.087Z,101238.26
2022-08-09T04:16:17.965Z,101237.09
2022-08-09T04:18:34.104Z,101237.30
2022-08-09T04:21:07.182Z,101241.20
2022-08-09T04:23:38.843Z,101238.59
2022-08-09T04:26:13.384Z,101243.86
2022-08-09T04:28:47.471Z,101243.01
2022-08-09T04:31:23.376Z,101241.91
2022-08-09T04:33:59.534Z,101245.65
2022-08-09T04:36:34.072Z,101246.88
2022-08-09T04:39:10.662Z,101252.02
2022-08-09T04:41:45.639Z,101255.49
2022-08-09T04:44:20.606Z,101258.49
2022-08-09T04:46:59.387Z,101260.60
2022-08-09T04:49:54.259Z,101257.84
2022-08-09T04:52:28.080Z,101261.78
2022-08-09T04:55:00.416Z,101264.20
2022-08-09T04:57:54.394Z,101265.06
2022-08-09T05:00:31.881Z,101266.52
2022-08-09T05:03:30.254Z,101263.23
2022-08-09T05:06:06.842Z,101269.48
2022-08-09T05:08:43.720Z,101270.69
2022-08-09T05:11:18.085Z,101270.25
2022-08-09T05:13:51.898Z,101273.32
2022-08-09T05:16:31.523Z,101273.52
2022-08-09T05:19:02.767Z,101279.15
2022-08-09T05:21:36.640Z,101275.77
2022-08-09T05:24:18.347Z,101274.88
2022-08-09T05:26:50.814Z,101278.67
2022-08-09T05:29:22.149Z,101279.38
2022-08-09T05:32:00.607Z,101281.91
2022-08-09T05:34:33.199Z,101279.70
2022-08-09T05:37:11.541Z,101281.41
2022-08-09T05:39:44.959Z,101285.42
2022-08-09T05:42:21.866Z,101285.65
2022-08-09T05:45:55.732Z,101283.68
2022-08-09T05:48:32.883Z,101288.02
2022-08-09T05:51:16.866Z,101288.93
2022-08-09T05:53:57.641Z,101283.63
2022-08-09T05:56:33.086Z,101282.27
2022-08-09T05:59:04.421Z,101284.76
2022-08-09T06:01:42.767Z,101280.67
2022-08-09T06:04:23.305Z,101284.99
2022-08-09T06:06:56.913Z,101286.85
2022-08-09T06:09:54.102Z,101292.77
2022-08-09T06:12:22.131Z,101295.98
2022-08-09T06:15:01.302Z,101295.70
2022-08-09T06:17:39.726Z,101299.50
2022-08-09T06:20:12.854Z,101297.93
2022-08-09T06:22:50.352Z,101299.27
2022-08-09T06:25:23.457Z,101303.29
2022-08-09T06:27:53.142Z,101303.83
2022-08-09T06:30:23.054Z,101303.12
2022-08-09T06:33:13.179Z,101304.23
2022-08-09T06:35:57.095Z,101306.80
2022-08-09T06:38:32.219Z,101312.10
2022-08-09T06:41:18.250Z,101315.27
2022-08-09T06:43:50.618Z,101317.95
2022-08-09T06:46:40.485Z,101319.20
2022-08-09T06:49:10.996Z,101323.39
2022-08-09T06:51:42.325Z,101323.22
2022-08-09T06:54:14.912Z,101323.95
2022-08-09T06:56:47.116Z,101327.52
2022-08-09T07:00:52.109Z,101329.36
2022-08-09T07:02:08.300Z,101331.87
2022-08-09T07:04:41.831Z,101330.04
2022-08-09T07:08:00.201Z,101334.40
2022-08-09T07:10:29.693Z,101331.01
2022-08-09T07:22:36.318Z,101344.27
2022-08-09T07:25:32.831Z,101345.36
2022-08-09T07:28:19.314Z,101349.87
2022-08-09T07:31:27.943Z,101349.84
2022-08-09T07:34:06.126Z,101353.16
2022-08-09T07:36:47.388Z,101355.55
2022-08-09T07:42:55.707Z,101363.87
2022-08-09T07:46:31.113Z,101360.58
2022-08-09T07:49:01.761Z,101359.66
2022-08-09T07:56:36.891Z,101363.84
2022-08-09T07:59:14.161Z,101361.40
2022-08-09T08:01:58.072Z,101359.77
2022-08-09T08:04:31.723Z,101355.68
2022-08-09T08:07:15.468Z,101354.08
2022-08-09T08:10:08.765Z,101355.17
2022-08-09T08:12:45.418Z,101355.77
2022-08-09T08:15:23.239Z,101354.17
2022-08-09T08:17:58.146Z,101358.30
2022-08-09T08:20:32.646Z,101359.73
2022-08-09T08:23:16.801Z,101360.27
2022-08-09T08:26:06.497Z,101366.89
2022-08-09T08:28:43.997Z,101369.20
2022-08-09T08:31:16.101Z,101373.10
2022-08-09T08:33:52.269Z,101376.57
2022-08-09T08:36:34.892Z,101378.20
2022-08-09T08:40:53.561Z,101376.96
2022-08-09T08:43:24.298Z,101370.02
2022-08-09T08:46:32.033Z,101373.09
2022-08-09T08:49:04.528Z,101374.95
2022-08-09T08:51:38.790Z,101377.12
2022-08-09T08:54:20.654Z,101380.84
2022-08-09T08:57:11.344Z,101381.29
2022-08-09T08:59:46.426Z,101384.73
2022-08-09T09:02:31.481Z,101384.18
2022-08-09T09:05:09.864Z,101385.25
2022-08-09T09:07:45.119Z,101382.81
2022-08-09T09:10:17.830Z,101384.19
2022-08-09T09:12:51.603Z,101383.32
2022-08-09T09:15:28.337Z,101385.48
2022-08-09T09:17:59.276Z,101383.03
2022-08-09T09:20:36.949Z,101387.83
2022-08-09T09:23:07.442Z,101387.67
2022-08-09T09:26:01.879Z,101386.87
2022-08-09T09:28:39.073Z,101385.65
2022-08-09T09:32:05.954Z,101387.71
2022-08-09T09:34:24.106Z,101389.08
2022-08-09T09:37:12.956Z,101389.59
2022-08-09T09:39:57.007Z,101392.71
2022-08-09T09:42:31.181Z,101394.16
2022-08-09T09:46:39.078Z,101390.05
2022-08-09T09:48:41.053Z,101393.69
2022-08-09T09:51:26.161Z,101392.81
2022-08-09T09:54:20.284Z,101389.64
2022-08-09T09:58:03.664Z,101384.72
2022-08-09T09:59:47.176Z,101380.98
2022-08-09T10:02:30.297Z,101379.50
2022-08-09T10:05:11.896Z,101378.77
2022-08-09T10:08:10.892Z,101373.64
2022-08-09T10:10:40.654Z,101375.09
2022-08-09T10:13:24.886Z,101370.59
2022-08-09T10:16:54.727Z,101369.98
2022-08-09T10:18:59.899Z,101369.77
2022-08-09T10:21:37.093Z,101366.05
2022-08-09T10:24:10.073Z,101370.48
2022-08-09T10:26:50.026Z,101363.63
2022-08-09T10:30:22.160Z,101366.15
2022-08-09T10:35:13.221Z,101357.11
2022-08-09T10:37:44.694Z,101353.51
2022-08-09T10:40:34.704Z,101353.32
2022-08-09T11:24:00.339Z,101331.64
2022-08-09T11:26:47.211Z,101330.40
2022-08-09T11:30:05.624Z,101328.56
2022-08-09T11:33:01.808Z,101328.59
2022-08-09T11:35:50.255Z,101326.23
2022-08-09T11:38:32.349Z,101325.20
2022-08-09T11:41:38.180Z,101324.50
2022-08-09T11:44:13.513Z,101323.66
2022-08-09T11:47:35.400Z,101316.89
2022-08-09T11:50:55.557Z,101322.33
2022-08-09T11:53:21.146Z,101318.91
2022-08-09T11:56:02.334Z,101316.79
2022-08-09T11:59:01.570Z,101314.58
2022-08-09T12:02:00.913Z,101307.14
2022-08-09T12:04:32.435Z,101307.27
2022-08-09T12:07:09.783Z,101303.51
2022-08-09T12:09:40.658Z,101301.30
2022-08-09T12:12:28.800Z,101304.64
2022-08-09T12:15:48.439Z,101302.27
2022-08-09T12:18:29.889Z,101296.44
2022-08-09T12:21:03.139Z,101293.05
2022-08-09T12:23:56.128Z,101292.19
2022-08-09T12:26:26.593Z,101290.75
2022-08-09T12:29:29.445Z,101284.32
2022-08-09T12:32:02.584Z,101285.48
2022-08-09T12:34:39.883Z,101278.30
2022-08-09T12:37:23.741Z,101278.25
2022-08-09T12:40:12.182Z,101276.48
2022-08-09T12:43:05.395Z,101280.36
2022-08-09T12:46:32.565Z,101280.04
2022-08-09T12:52:44.274Z,101276.70
2022-08-09T12:59:57.775Z,101269.40
2022-08-09T13:50:54.548Z,101242.83
2022-08-09T13:53:57.438Z,101244.13
2022-08-09T13:56:50.133Z,101243.64
2022-08-09T14:00:05.731Z,101243.77
2022-08-09T14:03:17.075Z,101243.80
2022-08-09T14:06:02.657Z,101236.02
2022-08-09T14:08:37.311Z,101235.04
2022-08-09T14:11:16.169Z,101237.20
2022-08-09T14:14:24.006Z,101231.92
2022-08-09T14:16:42.335Z,101233.00
2022-08-09T14:19:13.139Z,101231.77
2022-08-09T14:21:43.588Z,101232.60
2022-08-09T14:24:35.898Z,101234.89
2022-08-09T14:27:19.997Z,101233.77
2022-08-09T14:30:37.434Z,101231.77
2022-08-09T14:32:47.183Z,101231.09
2022-08-09T14:35:52.629Z,101226.61
2022-08-09T14:38:33.355Z,101229.55
2022-08-09T14:41:34.797Z,101228.86
2022-08-09T14:43:59.289Z,101225.60
2022-08-09T14:46:56.031Z,101226.19
2022-08-09T14:50:17.401Z,101230.83
2022-08-09T14:53:14.049Z,101224.05
2022-08-09T14:55:50.508Z,101225.82
2022-08-09T14:58:24.265Z,101225.09
2022-08-09T15:00:57.771Z,101228.05
2022-08-09T15:03:30.624Z,101229.42
2022-08-09T15:06:04.215Z,101233.80
2022-08-09T15:08:35.221Z,101237.98
2022-08-09T15:11:07.415Z,101236.50
2022-08-09T15:13:48.581Z,101240.45
2022-08-09T15:16:31.447Z,101243.11
2022-08-09T15:19:15.916Z,101241.53
2022-08-09T15:22:06.740Z,101241.13
2022-08-09T15:24:59.533Z,101241.02
2022-08-09T15:28:35.536Z,101242.66
2022-08-09T15:31:40.995Z,101242.02
2022-08-09T15:41:33.597Z,101243.06
2022-08-09T15:48:29.021Z,101251.82
2022-08-09T15:51:30.162Z,101258.61
2022-08-09T16:20:16.323Z,101255.92
2022-08-09T16:22:56.060Z,101257.27
2022-08-09T16:25:49.885Z,101260.42
2022-08-09T16:28:25.512Z,101259.32
2022-08-09T16:31:15.848Z,101257.59
2022-08-09T16:33:47.060Z,101260.19
2022-08-09T16:36:40.864Z,101259.61
2022-08-09T16:39:39.996Z,101257.34
2022-08-09T16:42:57.055Z,101257.36
2022-08-09T16:45:53.483Z,101253.29
2022-08-09T16:48:43.283Z,101256.05
2022-08-09T16:51:17.989Z,101255.55
2022-08-09T16:54:16.465Z,101259.46
2022-08-09T16:56:53.169Z,101255.95
2022-08-09T16:59:22.599Z,101248.73
2022-08-09T17:01:54.960Z,101249.77
2022-08-09T17:04:29.765Z,101251.92
2022-08-09T17:08:46.924Z,101251.02
2022-08-09T17:09:50.694Z,101249.52
2022-08-09T17:12:21.502Z,101249.17
2022-08-09T17:14:58.357Z,101246.67
2022-08-09T17:17:30.794Z,101250.73
2022-08-09T17:20:32.428Z,101251.94
2022-08-09T17:23:14.751Z,101254.08
2022-08-09T17:25:52.777Z,101252.59
2022-08-09T17:28:25.125Z,101257.81
2022-08-09T17:30:57.215Z,101254.12
2022-08-09T17:33:26.318Z,101255.20
2022-08-09T17:36:05.776Z,101252.19
2022-08-09T17:38:39.537Z,101252.17
2022-08-09T17:41:10.561Z,101248.62
2022-08-09T17:43:47.118Z,101246.65
2022-08-09T17:46:34.240Z,101250.25
2022-08-09T17:49:05.467Z,101254.20
2022-08-09T17:51:40.266Z,101255.89
2022-08-09T17:54:13.103Z,101256.92
2022-08-09T17:56:47.015Z,101262.25
2022-08-09T17:59:20.181Z,101263.08
2022-08-09T18:02:07.391Z,101266.42
2022-08-09T18:04:52.011Z,101269.52
2022-08-09T18:07:30.320Z,101266.19
2022-08-09T18:10:12.078Z,101268.86
2022-08-09T18:13:38.924Z,101272.86
2022-08-09T18:16:08.086Z,101274.73
2022-08-09T18:18:43.347Z,101275.83
2022-08-09T18:21:23.512Z,101278.28
2022-08-09T18:24:09.975Z,101276.55
2022-08-09T18:26:46.290Z,101279.06
2022-08-09T18:30:41.746Z,101280.09
2022-08-09T18:32:09.566Z,101283.29
2022-08-09T18:34:40.036Z,101287.96
2022-08-09T18:37:47.175Z,101291.95
2022-08-09T18:40:04.297Z,101297.71
2022-08-09T18:42:38.001Z,101300.77
2022-08-09T18:46:47.909Z,101304.73
2022-08-09T18:48:34.069Z,101311.73
2022-08-09T18:51:05.904Z,101306.56
2022-08-09T18:53:59.714Z,101307.23
2022-08-09T18:56:29.728Z,101309.21
2022-08-09T18:59:01.259Z,101308.67
2022-08-09T19:01:32.187Z,101310.57
2022-08-09T19:04:17.867Z,101314.10
2022-08-09T19:07:06.012Z,101316.33
2022-08-09T19:10:13.927Z,101312.94
2022-08-09T19:12:32.174Z,101310.30
2022-08-09T19:15:08.421Z,101313.23
2022-08-09T19:17:54.668Z,101313.08
2022-08-09T19:20:34.068Z,101310.94
2022-08-09T19:23:06.617Z,101311.77
2022-08-09T19:26:01.520Z,101315.16
2022-08-09T19:28:30.002Z,101315.98
2022-08-09T19:31:01.154Z,101316.42
2022-08-09T19:33:34.962Z,101320.11
2022-08-09T19:36:07.164Z,101324.88
2022-08-09T19:38:42.947Z,101321.95
2022-08-09T19:41:33.037Z,101324.47
2022-08-09T19:44:06.541Z,101325.97
2022-08-09T19:47:29.000Z,101328.31
2022-08-09T19:50:08.044Z,101334.41
2022-08-09T19:52:54.083Z,101334.73
2022-08-09T19:55:30.507Z,101336.09
2022-08-09T19:58:16.138Z,101333.47
2022-08-09T20:00:48.184Z,101335.28
2022-08-09T20:04:10.665Z,101335.38
2022-08-09T20:06:10.529Z,101336.81
2022-08-09T20:08:56.702Z,101336.60
2022-08-09T20:11:42.925Z,101335.05
2022-08-09T20:14:17.173Z,101334.92
2022-08-09T20:16:53.279Z,101332.63
2022-08-09T20:19:47.567Z,101334.54
2022-08-09T20:22:18.475Z,101337.03
2022-08-09T20:24:53.521Z,101335.16
2022-08-09T20:27:24.885Z,101333.92
2022-08-09T20:30:02.642Z,101334.77
2022-08-09T20:32:34.115Z,101333.59
2022-08-09T20:35:04.054Z,101331.13
2022-08-09T20:38:21.018Z,101329.30
2022-08-09T20:40:33.418Z,101327.40
2022-08-09T20:43:19.030Z,101328.63
2022-08-09T20:50:47.585Z,101334.08
2022-08-09T20:53:35.534Z,101332.08
2022-08-09T20:56:21.679Z,101334.01
2022-08-09T20:59:24.883Z,101340.56
2022-08-09T21:03:10.169Z,101338.34
2022-08-09T21:05:59.707Z,101343.07
2022-08-09T21:08:36.515Z,101341.98
2022-08-09T21:14:00.498Z,101346.95
2022-08-09T21:16:35.152Z,101346.17
2022-08-09T21:20:19.097Z,101349.55
2022-08-09T21:22:05.141Z,101354.33
2022-08-09T21:25:14.158Z,101357.98
2022-08-09T21:27:52.535Z,101355.86
2022-08-09T21:30:40.357Z,101358.09
2022-08-09T21:33:14.902Z,101358.30
2022-08-09T21:35:54.784Z,101355.17
2022-08-09T21:38:31.637Z,101357.27
2022-08-09T21:41:08.400Z,101353.79
2022-08-09T21:43:56.683Z,101355.90
2022-08-09T21:46:37.168Z,101355.27
2022-08-09T21:49:07.329Z,101353.52
2022-08-09T21:51:43.919Z,101356.20
2022-08-09T21:54:21.586Z,101359.59
2022-08-09T21:56:54.379Z,101360.16
2022-08-09T21:59:29.252Z,101357.77
2022-08-09T22:02:36.481Z,101353.48
2022-08-09T22:05:16.846Z,101354.71
2022-08-09T22:07:57.705Z,101355.36
2022-08-09T22:10:33.279Z,101355.38
2022-08-09T22:13:07.655Z,101351.61
2022-08-09T22:15:42.222Z,101356.89
2022-08-09T22:18:14.182Z,101355.73
2022-08-09T22:20:47.378Z,101355.06
2022-08-09T22:23:25.413Z,101353.27
2022-08-09T22:26:07.260Z,101352.86
2022-08-09T22:28:47.254Z,101356.20
2022-08-09T22:31:27.697Z,101356.83
2022-08-09T22:34:02.383Z,101354.81
2022-08-09T22:36:37.360Z,101350.30
2022-08-09T22:39:46.845Z,101349.93
2022-08-09T22:42:20.734Z,101345.95
2022-08-09T22:45:00.030Z,101345.23
2022-08-09T22:48:11.474Z,101345.70
2022-08-09T22:50:36.124Z,101346.17
2022-08-09T22:53:09.281Z,101351.89
2022-08-09T22:56:30.806Z,101352.23
2022-08-09T22:58:37.216Z,101354.21
2022-08-09T23:01:12.344Z,101353.48
2022-08-09T23:04:03.782Z,101353.14
2022-08-09T23:06:53.807Z,101355.20
2022-08-09T23:09:36.101Z,101354.86
2022-08-09T23:12:12.574Z,101360.77
2022-08-09T23:14:45.611Z,101355.77
2022-08-09T23:17:22.401Z,101353.56
2022-08-09T23:20:00.643Z,101352.75
2022-08-09T23:22:51.258Z,101351.31
2022-08-09T23:25:24.081Z,101357.80
2022-08-09T23:28:15.429Z,101353.69
2022-08-09T23:30:52.098Z,101355.44
2022-08-09T23:33:35.338Z,101357.48
2022-08-09T23:36:22.276Z,101354.98
2022-08-09T23:39:02.197Z,101357.93
2022-08-09T23:41:31.576Z,101355.77
2022-08-09T23:44:05.862Z,101353.09
2022-08-09T23:46:43.356Z,101352.66
2022-08-09T23:49:14.089Z,101351.86
2022-08-09T23:51:54.691Z,101351.19
2022-08-09T23:54:27.562Z,101351.56
2022-08-09T23:57:01.104Z,101346.12
2022-08-09T23:59:51.775Z,101345.86
